Accueil
METAR-TAF:

METAR-TAF

Aéroports :

Pembrey, Pays de Galles

latitude: 51-43N, longitude: 004-22W, altitude: 3 m

Observation

Le bulletin a été fait il y a 1 heure et 4 minutes, à 02:50 UTC
Vent 22 kt de ouest
Température 17°C
Humidité 88%
Pression 994 hPa
Visibilité 10 km ou plus

METAR: EGOP 060250Z AUTO 27022KT 9999 // FEW010/// BKN035/// 17/15 Q0994

Heure: 04:54 (03:54 UTC)


TAF: absent

Observations et prévisions météorologiques de plus de 4000 aéroports (messages METAR et TAF).

Les stations disponibles sont représentées par des disques jaunes et rouges sur la carte.

Passer la souris dessus pour voir le nom de la station.

Cliquer dessus pour voir les observations et prévisions météorologiques.

Pour changer de carte: cliquez sur les boutons verts avec une croix noire pour zoomer, sur le bouton vert avec un tiret pour effectuer un zoom arrière, ou sur les flèches vertes pour les cartes adjacentes.


METAR-TAF: